createdAt,value
2019-04-11T00:01:08.540Z,2.30
2019-04-11T00:03:37.613Z,2.30
2019-04-11T00:06:07.444Z,2.40
2019-04-11T00:08:37.148Z,2.40
2019-04-11T00:11:06.247Z,2.30
2019-04-11T00:13:36.428Z,2.30
2019-04-11T00:16:06.934Z,2.30
2019-04-11T00:18:35.834Z,2.30
2019-04-11T00:21:04.571Z,2.30
2019-04-11T00:23:34.336Z,2.30
2019-04-11T00:26:04.996Z,2.20
2019-04-11T00:28:34.108Z,2.20
2019-04-11T00:31:02.882Z,2.10
2019-04-11T00:33:32.100Z,2.10
2019-04-11T00:36:01.039Z,2.00
2019-04-11T00:38:29.984Z,2.00
2019-04-11T00:40:59.710Z,1.70
2019-04-11T00:43:36.822Z,1.90
2019-04-11T00:46:00.172Z,1.80
2019-04-11T00:48:30.037Z,1.80
2019-04-11T00:50:59.323Z,1.70
2019-04-11T00:53:28.237Z,1.70
2019-04-11T00:55:57.043Z,1.60
2019-04-11T00:58:28.134Z,1.50
2019-04-11T01:00:57.539Z,1.50
2019-04-11T01:03:26.637Z,1.40
2019-04-11T01:05:56.626Z,1.30
2019-04-11T01:08:25.695Z,1.30
2019-04-11T01:10:55.178Z,1.20
2019-04-11T01:13:50.373Z,1.20
2019-04-11T01:16:18.563Z,1.10
2019-04-11T01:18:47.215Z,1.00
2019-04-11T01:21:16.041Z,1.00
2019-04-11T01:23:44.914Z,0.90
2019-04-11T01:26:13.911Z,0.80
2019-04-11T01:28:42.899Z,0.80
2019-04-11T01:31:13.586Z,0.70
2019-04-11T01:33:42.270Z,0.60
2019-04-11T01:36:12.441Z,0.60
2019-04-11T01:38:44.237Z,0.60
2019-04-11T01:41:14.107Z,0.50
2019-04-11T01:43:52.613Z,0.50
2019-04-11T01:46:14.038Z,0.40
2019-04-11T01:48:45.820Z,0.40
2019-04-11T01:51:15.715Z,0.40
2019-04-11T01:53:44.570Z,0.40
2019-04-11T01:56:13.337Z,0.30
2019-04-11T01:58:42.683Z,0.30
2019-04-11T02:01:29.265Z,0.30
2019-04-11T02:04:03.583Z,0.20
2019-04-11T02:06:32.633Z,0.20
2019-04-11T02:09:01.981Z,0.20
2019-04-11T02:11:31.757Z,0.10
2019-04-11T02:14:12.052Z,0.10
2019-04-11T02:16:31.162Z,0.10
2019-04-11T02:18:59.862Z,0.10
2019-04-11T02:21:29.464Z,0.00
2019-04-11T02:24:00.002Z,0.10
2019-04-11T02:26:33.586Z,0.00
2019-04-11T02:29:03.472Z,0.00
2019-04-11T02:31:32.719Z,0.00
2019-04-11T02:34:02.428Z,-0.10
2019-04-11T02:36:33.750Z,-0.10
2019-04-11T02:39:08.073Z,-0.10
2019-04-11T02:41:35.119Z,-0.20
2019-04-11T02:44:05.335Z,-0.20
2019-04-11T02:46:42.517Z,-0.20
2019-04-11T02:49:05.997Z,-0.20
2019-04-11T02:51:36.619Z,-0.30
2019-04-11T02:54:07.050Z,-0.30
2019-04-11T02:56:36.572Z,-0.30
2019-04-11T02:59:05.641Z,-0.30
2019-04-11T03:01:36.122Z,-0.30
2019-04-11T03:04:07.269Z,-0.40
2019-04-11T03:06:36.087Z,-0.40
2019-04-11T03:09:07.112Z,-0.40
2019-04-11T03:11:36.648Z,-0.40
2019-04-11T03:14:05.513Z,-0.40
2019-04-11T03:16:46.530Z,-0.50
2019-04-11T03:19:18.336Z,-0.50
2019-04-11T03:21:39.215Z,-0.90
2019-04-11T03:24:08.272Z,-0.60
2019-04-11T03:26:37.684Z,-0.50
2019-04-11T03:29:08.466Z,-0.60
2019-04-11T03:39:28.940Z,-0.60
2019-04-11T03:41:54.801Z,-0.60
2019-04-11T03:44:20.551Z,-0.60
2019-04-11T03:46:57.412Z,-0.70
2019-04-11T03:49:25.110Z,-0.70
2019-04-11T03:51:43.664Z,-0.70
2019-04-11T03:54:13.647Z,-0.70
2019-04-11T03:56:43.291Z,-0.70
2019-04-11T03:59:14.849Z,-0.70
2019-04-11T04:01:44.227Z,-0.70
2019-04-11T04:04:15.479Z,-0.80
2019-04-11T04:06:45.857Z,-0.80
2019-04-11T04:09:16.447Z,-0.80
2019-04-11T04:11:47.043Z,-0.80
2019-04-11T04:14:24.324Z,-0.80
2019-04-11T04:17:03.915Z,-0.80
2019-04-11T04:19:51.778Z,-0.90
2019-04-11T04:22:24.606Z,-0.90
2019-04-11T04:24:53.884Z,-0.90
2019-04-11T04:27:26.205Z,-0.90
2019-04-11T04:29:57.701Z,-0.90
2019-04-11T04:32:25.164Z,-0.90
2019-04-11T04:34:56.044Z,-1.00
2019-04-11T04:37:26.711Z,-1.00
2019-04-11T04:40:13.486Z,-1.00
2019-04-11T04:42:32.203Z,-1.40
2019-04-11T04:44:58.249Z,-1.00
2019-04-11T04:47:37.103Z,-1.00
2019-04-11T04:49:59.136Z,-1.00
2019-04-11T04:52:29.659Z,-1.00
2019-04-11T04:54:59.506Z,-1.00
2019-04-11T04:57:29.819Z,-1.00
2019-04-11T05:00:00.109Z,-0.90
2019-04-11T05:02:30.452Z,-0.90
2019-04-11T05:05:01.424Z,-0.90
2019-04-11T05:07:34.492Z,-0.80
2019-04-11T05:10:03.311Z,-0.80
2019-04-11T05:12:32.015Z,-0.70
2019-04-11T05:15:01.546Z,-0.60
2019-04-11T05:17:30.299Z,-0.60
2019-04-11T05:19:59.045Z,-0.50
2019-04-11T05:22:27.844Z,-0.50
2019-04-11T05:25:15.884Z,-0.40
2019-04-11T05:27:45.433Z,-0.30
2019-04-11T05:30:14.705Z,-0.20
2019-04-11T05:32:43.472Z,-0.10
2019-04-11T05:35:12.227Z,0.10
2019-04-11T05:37:41.141Z,0.20
2019-04-11T05:40:09.955Z,0.40
2019-04-11T05:42:39.647Z,0.50
2019-04-11T05:45:15.692Z,0.70
2019-04-11T05:47:39.538Z,1.00
2019-04-11T05:50:28.524Z,1.10
2019-04-11T05:53:01.176Z,1.30
2019-04-11T05:55:30.156Z,2.30
2019-04-11T05:58:00.845Z,3.50
2019-04-11T06:00:32.538Z,5.20
2019-04-11T06:03:03.792Z,7.00
2019-04-11T06:05:37.935Z,8.70
2019-04-11T06:08:09.869Z,10.10
2019-04-11T06:10:50.359Z,11.00
2019-04-11T06:13:21.039Z,11.60
2019-04-11T06:15:51.487Z,12.30
2019-04-11T06:18:26.978Z,13.20
2019-04-11T06:20:54.017Z,13.70
2019-04-11T06:23:37.171Z,14.20
2019-04-11T06:26:24.789Z,14.70
2019-04-11T06:28:56.682Z,14.50
2019-04-11T06:31:45.473Z,12.90
2019-04-11T06:34:15.470Z,12.60
2019-04-11T06:36:46.880Z,12.00
2019-04-11T06:39:19.081Z,11.50
2019-04-11T06:41:52.757Z,12.30
2019-04-11T06:44:26.003Z,11.60
2019-04-11T06:47:12.677Z,11.00
2019-04-11T06:49:42.994Z,11.60
2019-04-11T06:52:16.749Z,11.90
2019-04-11T06:54:59.520Z,12.20
2019-04-11T06:57:36.171Z,11.90
2019-04-11T07:00:09.152Z,12.40
2019-04-11T07:02:57.106Z,12.70
2019-04-11T07:05:28.857Z,13.50
2019-04-11T07:08:02.227Z,15.20
2019-04-11T07:10:32.727Z,15.40
2019-04-11T07:13:09.878Z,15.80
2019-04-11T07:15:40.281Z,15.20
2019-04-11T07:18:27.055Z,14.40
2019-04-11T07:20:58.561Z,14.80
2019-04-11T07:23:46.723Z,15.90
2019-04-11T07:26:18.805Z,15.80
2019-04-11T07:28:55.063Z,15.70
2019-04-11T07:31:40.838Z,15.70
2019-04-11T07:34:11.445Z,15.80
2019-04-11T07:36:57.956Z,16.40
2019-04-11T07:39:28.930Z,17.30
2019-04-11T07:42:00.334Z,17.30
2019-04-11T07:44:32.293Z,17.10
2019-04-11T07:47:17.192Z,18.00
2019-04-11T07:49:40.864Z,18.50
2019-04-11T07:52:11.097Z,17.70
2019-04-11T07:54:40.988Z,17.50
2019-04-11T07:57:17.228Z,17.80
2019-04-11T07:59:56.407Z,17.60
2019-04-11T08:02:43.283Z,18.70
2019-04-11T08:05:30.272Z,17.80
2019-04-11T08:08:05.268Z,17.30
2019-04-11T08:10:52.590Z,18.10
2019-04-11T08:13:26.281Z,18.30
2019-04-11T08:16:14.818Z,18.40
2019-04-11T08:18:45.417Z,17.50
2019-04-11T08:21:26.083Z,18.30
2019-04-11T08:23:56.734Z,18.00
2019-04-11T08:26:44.370Z,17.50
2019-04-11T08:29:15.678Z,17.60
2019-04-11T08:32:02.705Z,17.40
2019-04-11T08:34:33.241Z,17.70
2019-04-11T08:37:13.630Z,17.20
2019-04-11T08:39:42.639Z,17.30
2019-04-11T08:42:29.652Z,17.20
2019-04-11T08:45:12.348Z,17.10
2019-04-11T08:47:47.552Z,16.60
2019-04-11T08:50:16.202Z,16.90
2019-04-11T08:53:18.566Z,17.30
2019-04-11T08:55:55.699Z,17.50
2019-04-11T08:58:24.677Z,17.10
2019-04-11T09:00:58.502Z,16.70
2019-04-11T09:03:31.246Z,16.60
2019-04-11T09:06:06.195Z,16.90
2019-04-11T09:08:46.841Z,17.30
2019-04-11T09:11:24.621Z,17.50
2019-04-11T09:13:57.839Z,17.20
2019-04-11T09:16:47.852Z,17.40
2019-04-11T09:19:34.780Z,17.10
2019-04-11T09:22:11.534Z,17.50
2019-04-11T09:24:43.115Z,17.80
2019-04-11T09:27:31.152Z,17.80
2019-04-11T09:30:02.542Z,17.80
2019-04-11T09:32:42.511Z,18.10
2019-04-11T09:35:29.608Z,18.60
2019-04-11T09:38:00.204Z,18.20
2019-04-11T09:40:43.649Z,18.30
2019-04-11T09:43:17.807Z,18.00
2019-04-11T09:45:57.707Z,17.60
2019-04-11T09:48:44.571Z,17.70
2019-04-11T09:51:15.624Z,17.50
2019-04-11T09:53:49.019Z,17.20
2019-04-11T09:56:29.227Z,17.10
2019-04-11T09:59:02.512Z,17.10
2019-04-11T10:01:42.920Z,16.40
2019-04-11T10:04:14.356Z,16.80
2019-04-11T10:07:03.443Z,16.50
2019-04-11T10:09:50.630Z,16.70
2019-04-11T10:12:40.059Z,16.60
2019-04-11T10:15:09.473Z,16.90
2019-04-11T10:18:25.310Z,17.10
2019-04-11T10:20:46.107Z,16.80
2019-04-11T10:23:25.127Z,16.50
2019-04-11T10:25:55.947Z,16.60
2019-04-11T10:28:29.683Z,17.10
2019-04-11T10:31:06.476Z,16.70
2019-04-11T10:33:37.216Z,16.60
2019-04-11T10:36:27.375Z,16.70
2019-04-11T10:39:15.199Z,17.00
2019-04-11T10:42:08.518Z,17.50
2019-04-11T10:44:56.240Z,17.10
2019-04-11T10:47:29.542Z,16.90
2019-04-11T10:50:15.453Z,16.10
2019-04-11T10:52:46.741Z,14.80
2019-04-11T10:55:17.724Z,14.30
2019-04-11T10:57:48.696Z,15.20
2019-04-11T11:00:19.140Z,15.20
2019-04-11T11:02:49.601Z,14.10
2019-04-11T11:05:20.017Z,13.40
2019-04-11T11:07:48.990Z,12.90
2019-04-11T11:10:21.982Z,13.70
2019-04-11T11:12:59.385Z,14.50
2019-04-11T11:15:30.183Z,14.10
2019-04-11T11:19:13.944Z,13.00
2019-04-11T11:21:00.326Z,12.80
2019-04-11T11:23:40.889Z,12.30
2019-04-11T11:26:22.549Z,12.00
2019-04-11T11:28:55.047Z,11.70
2019-04-11T11:31:25.399Z,11.90
2019-04-11T11:33:56.533Z,13.00
2019-04-11T11:36:43.825Z,14.20
2019-04-11T11:39:33.382Z,14.80
2019-04-11T11:42:22.011Z,14.60
2019-04-11T11:44:55.376Z,14.00
2019-04-11T11:47:43.196Z,13.30
2019-04-11T11:50:18.166Z,13.30
2019-04-11T11:53:08.146Z,13.00
2019-04-11T11:55:35.610Z,13.00
2019-04-11T11:58:23.688Z,13.40
2019-04-11T12:00:56.882Z,13.40
2019-04-11T12:03:40.492Z,13.30
2019-04-11T12:06:09.612Z,13.10
2019-04-11T12:08:56.680Z,12.70
2019-04-11T12:11:26.249Z,12.30
2019-04-11T12:14:13.288Z,12.20
2019-04-11T12:17:00.326Z,12.00
2019-04-11T12:19:42.649Z,12.00
2019-04-11T12:22:02.278Z,12.10
2019-04-11T12:24:44.941Z,12.40
2019-04-11T12:27:16.404Z,12.70
2019-04-11T12:30:05.791Z,12.60
2019-04-11T12:32:36.803Z,12.70
2019-04-11T12:35:11.618Z,13.20
2019-04-11T12:37:50.506Z,13.20
2019-04-11T12:40:31.784Z,12.70
2019-04-11T12:43:02.150Z,12.60
2019-04-11T12:45:32.618Z,12.70
2019-04-11T12:48:01.720Z,12.90
2019-04-11T12:50:34.883Z,12.60
2019-04-11T12:53:05.734Z,12.80
2019-04-11T12:55:47.883Z,12.80
2019-04-11T12:58:20.774Z,12.70
2019-04-11T13:00:56.999Z,12.60
2019-04-11T13:03:32.979Z,12.40
2019-04-11T13:06:03.339Z,12.40
2019-04-11T13:08:51.713Z,12.40
2019-04-11T13:11:41.391Z,12.50
2019-04-11T13:14:12.290Z,12.40
2019-04-11T13:16:43.357Z,12.30
2019-04-11T13:19:16.718Z,12.20
2019-04-11T13:21:49.767Z,12.40
2019-04-11T13:24:20.138Z,12.50
2019-04-11T13:26:50.560Z,12.50
2019-04-11T13:29:23.609Z,12.40
2019-04-11T13:31:54.070Z,12.00
2019-04-11T13:34:27.528Z,11.90
2019-04-11T13:37:14.463Z,11.90
2019-04-11T13:39:46.678Z,12.30
2019-04-11T13:42:22.858Z,12.70
2019-04-11T13:44:51.582Z,12.80
2019-04-11T13:47:30.724Z,12.70
2019-04-11T13:50:00.534Z,12.70
2019-04-11T13:52:33.967Z,12.40
2019-04-11T13:55:07.507Z,12.30
2019-04-11T13:57:54.172Z,12.20
2019-04-11T14:00:39.576Z,12.20
2019-04-11T14:03:26.567Z,12.10
2019-04-11T14:05:56.966Z,12.10
2019-04-11T14:08:43.500Z,12.10
2019-04-11T14:11:13.836Z,11.90
2019-04-11T14:13:44.242Z,11.90
2019-04-11T14:16:14.572Z,11.70
2019-04-11T14:18:47.707Z,11.60
2019-04-11T14:21:23.778Z,11.30
2019-04-11T14:24:12.182Z,11.20
2019-04-11T14:26:54.602Z,11.10
2019-04-11T14:29:37.330Z,11.00
2019-04-11T14:32:23.192Z,11.10
2019-04-11T14:34:51.804Z,11.40
2019-04-11T14:37:37.787Z,11.70
2019-04-11T14:40:05.930Z,11.90
2019-04-11T14:42:54.543Z,12.00
2019-04-11T14:45:27.953Z,11.90
2019-04-11T14:48:14.813Z,11.60
2019-04-11T14:50:54.312Z,11.20
2019-04-11T14:53:24.758Z,11.00
2019-04-11T14:55:55.376Z,10.90
2019-04-11T14:58:42.080Z,10.90
2019-04-11T15:01:31.108Z,11.00
2019-04-11T15:04:17.996Z,10.90
2019-04-11T15:06:48.288Z,10.90
2019-04-11T15:09:18.734Z,11.00
2019-04-11T15:11:51.515Z,10.80
2019-04-11T15:14:38.553Z,10.50
2019-04-11T15:17:08.843Z,10.30
2019-04-11T15:19:39.494Z,10.30
2019-04-11T15:22:12.525Z,10.30
2019-04-11T15:24:43.077Z,10.50
2019-04-11T15:27:22.673Z,10.60
2019-04-11T15:29:51.425Z,10.60
2019-04-11T15:32:24.667Z,10.40
2019-04-11T15:34:53.443Z,10.20
2019-04-11T15:37:25.839Z,10.00
2019-04-11T15:39:58.777Z,9.80
2019-04-11T15:42:41.252Z,9.80
2019-04-11T15:45:13.556Z,9.80
2019-04-11T15:47:59.947Z,9.90
2019-04-11T15:50:46.623Z,10.20
2019-04-11T15:53:16.991Z,10.40
2019-04-11T15:56:07.470Z,10.40
2019-04-11T15:58:35.874Z,10.40
2019-04-11T16:01:22.702Z,10.40
2019-04-11T16:03:53.117Z,10.30
2019-04-11T16:06:39.068Z,10.10
2019-04-11T16:09:09.754Z,9.90
2019-04-11T16:11:44.079Z,9.90
2019-04-11T16:14:13.485Z,9.80
2019-04-11T16:16:46.824Z,9.70
2019-04-11T16:19:33.538Z,9.60
2019-04-11T16:22:39.615Z,9.50
2019-04-11T16:25:10.063Z,9.20
2019-04-11T16:27:43.322Z,9.00
2019-04-11T16:30:14.108Z,8.70
2019-04-11T16:32:50.354Z,8.60
2019-04-11T16:35:26.002Z,8.40
2019-04-11T16:38:00.624Z,8.30
2019-04-11T16:40:37.359Z,8.30
2019-04-11T16:43:07.807Z,8.10
2019-04-11T16:45:41.180Z,8.00
2019-04-11T16:48:09.966Z,8.00
2019-04-11T16:50:38.746Z,8.00
2019-04-11T16:53:10.667Z,8.00
2019-04-11T16:55:41.926Z,8.00
2019-04-11T16:58:08.667Z,8.00
2019-04-11T17:00:37.359Z,8.00
2019-04-11T17:03:06.163Z,8.10
2019-04-11T17:05:36.939Z,8.00
2019-04-11T17:08:10.235Z,8.00
2019-04-11T17:10:57.641Z,8.00
2019-04-11T17:13:27.731Z,7.90
2019-04-11T17:15:59.801Z,7.90
2019-04-11T17:18:27.558Z,7.90
2019-04-11T17:20:56.342Z,7.80
2019-04-11T17:23:25.268Z,7.70
2019-04-11T17:25:53.975Z,7.70
2019-04-11T17:28:23.668Z,7.60
2019-04-11T17:30:55.219Z,7.50
2019-04-11T17:33:27.740Z,7.40
2019-04-11T17:35:53.905Z,7.40
2019-04-11T17:38:22.603Z,7.30
2019-04-11T17:40:51.409Z,7.20
2019-04-11T17:43:20.207Z,7.10
2019-04-11T17:45:48.894Z,7.00
2019-04-11T17:48:17.682Z,7.00
2019-04-11T17:50:46.451Z,6.90
2019-04-11T17:53:15.319Z,6.90
2019-04-11T17:55:44.157Z,6.80
2019-04-11T17:58:12.886Z,6.70
2019-04-11T18:00:46.555Z,6.70
2019-04-11T18:03:15.438Z,6.60
2019-04-11T18:05:46.621Z,6.50
2019-04-11T18:08:14.741Z,6.40
2019-04-11T18:10:43.513Z,6.40
2019-04-11T18:13:12.455Z,6.30
2019-04-11T18:15:41.240Z,6.20
2019-04-11T18:18:10.009Z,6.10
2019-04-11T18:20:38.860Z,6.10
2019-04-11T18:23:07.813Z,6.00
2019-04-11T18:25:36.570Z,6.00
2019-04-11T18:28:05.502Z,5.90
2019-04-11T18:30:34.322Z,5.90
2019-04-11T18:33:03.155Z,5.80
2019-04-11T18:35:32.523Z,5.70
2019-04-11T18:38:02.539Z,5.70
2019-04-11T18:40:31.763Z,5.60
2019-04-11T18:43:00.788Z,5.50
2019-04-11T18:45:31.090Z,5.40
2019-04-11T18:48:00.439Z,5.30
2019-04-11T18:50:29.606Z,5.40
2019-04-11T18:52:59.653Z,5.40
2019-04-11T18:55:29.299Z,5.30
2019-04-11T18:57:58.186Z,5.20
2019-04-11T19:00:27.025Z,5.20
2019-04-11T19:02:55.850Z,5.20
2019-04-11T19:05:28.932Z,5.20
2019-04-11T19:07:58.563Z,5.10
2019-04-11T19:10:27.599Z,5.10
2019-04-11T19:12:56.444Z,5.00
2019-04-11T19:15:25.545Z,5.00
2019-04-11T19:18:05.764Z,5.00
2019-04-11T19:20:25.197Z,5.00
2019-04-11T19:22:54.427Z,4.90
2019-04-11T19:25:23.348Z,4.90
2019-04-11T19:27:54.253Z,4.90
2019-04-11T19:30:23.989Z,4.80
2019-04-11T19:32:53.301Z,4.80
2019-04-11T19:35:22.115Z,4.70
2019-04-11T19:37:51.201Z,4.80
2019-04-11T19:40:39.241Z,4.70
2019-04-11T19:43:08.027Z,4.60
2019-04-11T19:45:36.796Z,4.60
2019-04-11T19:48:05.702Z,4.50
2019-04-11T19:50:34.525Z,4.40
2019-04-11T19:53:03.531Z,4.40
2019-04-11T19:55:48.966Z,4.30
2019-04-11T19:58:19.788Z,4.30
2019-04-11T20:00:53.254Z,4.20
2019-04-11T20:03:19.338Z,4.20
2019-04-11T20:05:48.078Z,4.20
2019-04-11T20:08:16.860Z,4.10
2019-04-11T20:10:46.294Z,4.10
2019-04-11T20:13:15.584Z,4.10
2019-04-11T20:15:44.343Z,4.10
2019-04-11T20:18:13.258Z,4.10
2019-04-11T20:20:42.143Z,4.10
2019-04-11T20:23:11.606Z,4.00
2019-04-11T20:25:40.449Z,3.90
2019-04-11T20:28:09.311Z,3.90
2019-04-11T20:30:38.060Z,3.90
2019-04-11T20:33:06.718Z,3.80
2019-04-11T20:35:39.741Z,3.80
2019-04-11T20:38:06.119Z,3.80
2019-04-11T20:40:35.052Z,3.80
2019-04-11T20:43:03.899Z,3.70
2019-04-11T20:45:34.514Z,3.70
2019-04-11T20:48:03.376Z,3.60
2019-04-11T20:50:32.272Z,3.60
2019-04-11T20:53:12.023Z,3.50
2019-04-11T20:55:31.645Z,3.50
2019-04-11T20:58:00.566Z,3.60
2019-04-11T21:00:29.476Z,3.50
2019-04-11T21:02:58.997Z,3.50
2019-04-11T21:05:30.791Z,3.50
2019-04-11T21:08:02.582Z,3.40
2019-04-11T21:10:28.873Z,3.30
2019-04-11T21:13:00.255Z,3.30
2019-04-11T21:15:28.951Z,3.30
2019-04-11T21:17:57.744Z,3.30
2019-04-11T21:20:26.536Z,3.30
2019-04-11T21:22:55.202Z,3.30
2019-04-11T21:25:26.103Z,3.20
2019-04-11T21:27:54.350Z,3.20
2019-04-11T21:30:23.193Z,3.10
2019-04-11T21:32:51.813Z,3.10
2019-04-11T21:35:20.614Z,3.10
2019-04-11T21:37:49.605Z,3.00
2019-04-11T21:40:18.742Z,3.00
2019-04-11T21:42:47.695Z,3.00
2019-04-11T21:45:16.516Z,2.90
2019-04-11T21:47:45.221Z,2.90
2019-04-11T21:50:14.238Z,2.80
2019-04-11T21:52:43.672Z,2.80
2019-04-11T21:55:16.055Z,2.80
2019-04-11T21:57:48.458Z,2.80
2019-04-11T22:00:15.852Z,2.70
2019-04-11T22:02:44.627Z,2.70
2019-04-11T22:05:13.688Z,2.80
2019-04-11T22:07:42.313Z,2.80
2019-04-11T22:10:11.440Z,2.80
2019-04-11T22:12:40.570Z,2.80
2019-04-11T22:15:11.722Z,2.80
2019-04-11T22:17:40.080Z,2.80
2019-04-11T22:20:09.222Z,2.80
2019-04-11T22:22:38.037Z,2.80
2019-04-11T22:25:07.075Z,2.80
2019-04-11T22:27:35.763Z,2.90
2019-04-11T22:30:07.551Z,3.00
2019-04-11T22:32:36.243Z,3.10
2019-04-11T22:35:05.670Z,3.20
2019-04-11T22:37:34.414Z,3.20
2019-04-11T22:40:04.512Z,3.30
2019-04-11T22:42:33.264Z,3.40
2019-04-11T22:45:01.944Z,3.40
2019-04-11T22:47:30.678Z,3.50
2019-04-11T22:49:59.543Z,3.50
2019-04-11T22:52:28.444Z,3.60
2019-04-11T22:54:57.225Z,3.70
2019-04-11T22:57:25.834Z,3.70
2019-04-11T22:59:54.622Z,3.80
2019-04-11T23:02:27.695Z,3.80
2019-04-11T23:04:56.543Z,3.80
2019-04-11T23:07:25.438Z,3.80
2019-04-11T23:09:54.339Z,3.90
2019-04-11T23:12:23.218Z,3.90
2019-04-11T23:14:51.979Z,4.00
2019-04-11T23:17:20.787Z,4.00
2019-04-11T23:19:49.613Z,4.10
2019-04-11T23:22:18.295Z,4.10
2019-04-11T23:24:46.995Z,4.10
2019-04-11T23:27:15.786Z,4.10
2019-04-11T23:29:44.732Z,4.10
2019-04-11T23:32:14.887Z,4.10
2019-04-11T23:34:43.874Z,4.20
2019-04-11T23:37:12.678Z,4.20
2019-04-11T23:39:41.430Z,4.20
2019-04-11T23:42:10.190Z,4.20
2019-04-11T23:44:39.126Z,4.30
2019-04-11T23:47:07.819Z,4.20
2019-04-11T23:49:36.546Z,4.30
2019-04-11T23:52:05.418Z,4.20
2019-04-11T23:54:34.126Z,4.30
2019-04-11T23:57:03.206Z,4.20
2019-04-11T23:59:32.710Z,4.40
